»·PEaware :: N582WD KSFO-KPSP

N582WD :: KSFO-KPSP

FLIGHT INFORMATION

Flight Status: Arrived
Operator: Privately registered:
United States
More flights under this callsign
Pilot: Kaleb W. (11686)
Aircraft: ECLIPSE 500
(EA50)
More flights by this aircraft type
Origin: KSFO San Francisco Intl
United States
Destination: KPSP Palm Springs Intl
United States
More flights between these airports :: More routes between these airports
Route: SSTIK4 LOSHN CLASN SIZLR3
File this flight plan on PilotEdge
Remarks: RMK / SIMBRIEF
Altitude:
(Current/Filed)
29,000ft
Speed:
(Current/Filed)
370kts
Departed: 27-Apr-19 02:37 PM
Arrived: 27-Apr-19 04:10 PM
Distance/Time
Traveled:
365nm/1:32
Distance/Time
To Go:
Arrived

Flight Plot

Page will automatically refresh every two minutes.


Map Options




Map Legend


Flown Route
Filed Route
Departure Airport
Arrival Airport
Navaid (VOR, NDB)
Fix

Horizontal Profiles

Position Reports

Time Latitude Longitude Heading Altitude Ground
Speed
27-Apr-19 14:10 37.629008 -122.381667 297 9ft 0kts
27-Apr-19 14:11 37.629008 -122.381667 297 9ft 0kts
27-Apr-19 14:11 37.629008 -122.381667 297 9ft 0kts
27-Apr-19 14:12 37.629008 -122.381667 297 9ft 0kts
27-Apr-19 14:14 37.629008 -122.381667 297 9ft 0kts
27-Apr-19 14:14 37.629008 -122.381667 297 9ft 0kts
27-Apr-19 14:15 37.629008 -122.381667 297 9ft 0kts
27-Apr-19 14:16 37.629008 -122.381667 297 9ft 0kts
27-Apr-19 14:18 37.629008 -122.381667 297 9ft 0kts
27-Apr-19 14:18 37.629008 -122.381667 297 9ft 0kts
27-Apr-19 14:19 37.629008 -122.381667 297 9ft 0kts
27-Apr-19 14:20 37.629008 -122.381667 297 9ft 0kts
27-Apr-19 14:21 37.629008 -122.381667 297 9ft 0kts
27-Apr-19 14:22 37.629008 -122.381667 297 9ft 0kts
27-Apr-19 14:23 37.628145 -122.382058 208 10ft 13kts
27-Apr-19 14:24 37.627041 -122.382792 208 12ft 0kts
27-Apr-19 14:25 37.626330 -122.382999 195 14ft 10kts
27-Apr-19 14:26 37.628053 -122.388086 296 10ft 20kts
27-Apr-19 14:27 37.630187 -122.393568 292 10ft 15kts
27-Apr-19 14:28 37.628945 -122.396505 180 12ft 13kts
27-Apr-19 14:29 37.624751 -122.392319 120 20ft 21kts
27-Apr-19 14:30 37.622265 -122.386471 120 25ft 18kts
27-Apr-19 14:31 37.617708 -122.379517 173 25ft 27kts
27-Apr-19 14:32 37.611303 -122.382268 207 26ft 28kts
27-Apr-19 14:33 37.609233 -122.383204 115 26ft 0kts
27-Apr-19 14:34 37.609233 -122.383204 115 26ft 0kts
27-Apr-19 14:35 37.609632 -122.381830 28 25ft 12kts
27-Apr-19 14:36 37.635386 -122.365534 23 555ft 158kts
27-Apr-19 14:37 37.679238 -122.367601 308 2582ft 170kts
27-Apr-19 14:38 37.652443 -122.400387 188 4544ft 180kts
27-Apr-19 14:39 37.603152 -122.415424 201 6706ft 184kts
27-Apr-19 14:40 37.556252 -122.438067 207 8991ft 180kts
27-Apr-19 14:41 37.510772 -122.463273 209 11069ft 179kts
27-Apr-19 14:42 37.467550 -122.440743 133 12894ft 209kts
27-Apr-19 14:43 37.430923 -122.383209 134 14615ft 214kts
27-Apr-19 14:44 37.393090 -122.324275 134 16213ft 219kts
27-Apr-19 14:45 37.354385 -122.264216 134 17689ft 223kts
27-Apr-19 14:46 37.314830 -122.202993 134 19055ft 228kts
27-Apr-19 14:47 37.274472 -122.140654 134 20320ft 232kts
27-Apr-19 14:48 37.233337 -122.077231 134 21505ft 236kts
27-Apr-19 14:49 37.191571 -122.012969 134 22617ft 239kts
27-Apr-19 14:50 37.149166 -121.947849 134 23659ft 242kts
27-Apr-19 14:51 37.106293 -121.882145 134 24660ft 244kts
27-Apr-19 14:52 37.063233 -121.816301 134 25628ft 244kts
27-Apr-19 14:53 37.020522 -121.751107 133 26510ft 245kts
27-Apr-19 14:54 36.977140 -121.685018 133 27336ft 245kts
27-Apr-19 14:55 36.933647 -121.618860 132 28078ft 247kts
27-Apr-19 14:56 36.889689 -121.552137 132 28761ft 250kts
27-Apr-19 14:57 36.844425 -121.483609 132 29052ft 267kts
27-Apr-19 14:58 36.795090 -121.409059 132 29047ft 283kts
27-Apr-19 14:59 36.744739 -121.333100 132 29048ft 289kts
27-Apr-19 15:00 36.693222 -121.255607 132 29047ft 290kts
27-Apr-19 15:01 36.641717 -121.178261 133 29046ft 291kts
27-Apr-19 15:02 36.589751 -121.100414 133 29045ft 295kts
27-Apr-19 15:03 36.535676 -121.019674 133 29035ft 310kts
27-Apr-19 15:04 36.479980 -120.936562 133 29030ft 315kts
27-Apr-19 15:05 36.424070 -120.852771 133 28991ft 316kts
27-Apr-19 15:06 36.367985 -120.768906 133 28979ft 315kts
27-Apr-19 15:07 36.311772 -120.685050 133 28984ft 317kts
27-Apr-19 15:08 36.255573 -120.601427 133 28973ft 316kts
27-Apr-19 15:09 36.199117 -120.517614 133 28978ft 316kts
27-Apr-19 15:10 36.142953 -120.434451 133 28981ft 316kts
27-Apr-19 15:11 36.086449 -120.350990 133 28960ft 317kts
27-Apr-19 15:12 36.029864 -120.267624 134 28936ft 317kts
27-Apr-19 15:13 35.973292 -120.184480 134 28928ft 317kts
27-Apr-19 15:14 35.916515 -120.101239 134 28936ft 317kts
27-Apr-19 15:15 35.859633 -120.018052 134 28934ft 316kts
27-Apr-19 15:16 35.818022 -119.921736 118 28934ft 323kts
27-Apr-19 15:17 35.780333 -119.821180 118 28936ft 322kts
27-Apr-19 15:18 35.742595 -119.721002 118 28928ft 323kts
27-Apr-19 15:19 35.704414 -119.619966 118 28922ft 323kts
27-Apr-19 15:20 35.665734 -119.517977 118 28919ft 323kts
27-Apr-19 15:21 35.609450 -119.434193 136 28919ft 316kts
27-Apr-19 15:22 35.550282 -119.354336 136 28920ft 315kts
27-Apr-19 15:23 35.492907 -119.277023 136 28917ft 315kts
27-Apr-19 15:24 35.433852 -119.197666 136 28921ft 316kts
27-Apr-19 15:25 35.374257 -119.117748 136 28304ft 313kts
27-Apr-19 15:26 35.316162 -119.040026 136 27295ft 308kts
27-Apr-19 15:27 35.258244 -118.963171 137 26285ft 305kts
27-Apr-19 15:28 35.201148 -118.887585 137 25276ft 300kts
27-Apr-19 15:29 35.145251 -118.813756 137 24271ft 294kts
27-Apr-19 15:30 35.090684 -118.741873 137 24023ft 291kts
27-Apr-19 15:31 35.035516 -118.669334 137 24061ft 292kts
27-Apr-19 15:32 34.979647 -118.595963 138 24064ft 298kts
27-Apr-19 15:33 34.922306 -118.520909 138 24055ft 307kts
27-Apr-19 15:34 34.862875 -118.443320 138 24013ft 316kts
27-Apr-19 15:35 34.802946 -118.365192 138 23966ft 315kts
27-Apr-19 15:36 34.747488 -118.283744 134 23945ft 318kts
27-Apr-19 15:37 34.692300 -118.199073 133 23275ft 315kts
27-Apr-19 15:38 34.638911 -118.116752 133 21762ft 307kts
27-Apr-19 15:39 34.586764 -118.036413 132 20256ft 300kts
27-Apr-19 15:40 34.548083 -117.948321 119 19018ft 286kts
27-Apr-19 15:41 34.513359 -117.863628 118 18020ft 277kts
27-Apr-19 15:42 34.479479 -117.781097 118 17025ft 270kts
27-Apr-19 15:43 34.446392 -117.700664 117 16053ft 262kts
27-Apr-19 15:44 34.414221 -117.621820 117 16067ft 259kts
27-Apr-19 15:45 34.381752 -117.542439 117 16142ft 263kts
27-Apr-19 15:46 34.349121 -117.462861 117 16150ft 263kts
27-Apr-19 15:47 34.316368 -117.383173 117 16158ft 264kts
27-Apr-19 15:48 34.281812 -117.304109 121 16163ft 264kts
27-Apr-19 15:49 34.245628 -117.226443 121 16171ft 265kts
27-Apr-19 15:50 34.209209 -117.148739 121 16172ft 265kts
27-Apr-19 15:51 34.173099 -117.071778 122 16173ft 261kts
27-Apr-19 15:52 34.137576 -116.996320 122 16173ft 255kts
27-Apr-19 15:53 34.102822 -116.922413 122 16172ft 249kts
27-Apr-19 15:54 34.069423 -116.851016 121 15869ft 250kts
27-Apr-19 15:55 34.035970 -116.779594 121 14715ft 243kts
27-Apr-19 15:56 34.015066 -116.705188 108 12780ft 223kts
27-Apr-19 15:57 33.996954 -116.637244 108 11105ft 203kts
27-Apr-19 15:58 33.980166 -116.574471 108 11026ft 197kts
27-Apr-19 15:59 33.950361 -116.521089 137 10427ft 195kts
27-Apr-19 16:00 33.911955 -116.477446 137 9423ft 189kts
27-Apr-19 16:01 33.873724 -116.433950 138 8875ft 200kts
27-Apr-19 16:03 33.826156 -116.403851 136 7394ft 195kts
27-Apr-19 16:04 33.789841 -116.358109 135 5888ft 185kts
27-Apr-19 16:05 33.754567 -116.359496 268 4427ft 163kts
27-Apr-19 16:06 33.755230 -116.408085 290 3500ft 137kts
27-Apr-19 16:07 33.774316 -116.444618 308 2451ft 124kts
27-Apr-19 16:08 33.796036 -116.475095 314 1291ft 119kts
27-Apr-19 16:09 33.816654 -116.496108 323 524ft 86kts
27-Apr-19 16:10 33.831050 -116.508923 321 429ft 29kts
27-Apr-19 16:11 33.833095 -116.511703 239 438ft 0kts
27-Apr-19 16:12 33.830601 -116.510627 145 431ft 15kts
27-Apr-19 16:13 33.825944 -116.507065 210 416ft 21kts
27-Apr-19 16:14 33.824169 -116.507770 211 414ft 2kts
27-Apr-19 16:15 33.824120 -116.507806 211 414ft 0kts

Navigation Log

Ident Type
Flight plan parsing failed, navigation log unavailable